EBBL

Kleine Brogel Air Base Airport

Kleine Brogel, Belgium
METAR EBBL 190955Z 07003KT 9999 FEW045 SCT260 13/09 Q1025 BLU BLU
Observed Flight Rules
Oct-19 @ 09:55 UTC (18 minutes ago) Visual Flight Rules
Wind Visibility Clouds
70° at 3 knots 10,000+ meters
  • Few at 4,500' AGL
  • Scattered at 26,000' AGL
Temperatures Readings
Current 13°C / 55°F
Dewpoint 9°C / 48°F
Humidity 77%
Altimeter 30.27" Hg
Pressure 1025 hPa
Elevation 64
METAR EBBL 190955Z 07003KT 9999 FEW045 SCT260 13/09 Q1025 BLU BLU
Observed Flight Rules
Oct-19 @ 09:55 UTC
(18 minutes ago)
VFR
Wind Visibility
70° at 3 knots 10,000+ meters
Clouds
  • Few at 4,500' AGL
  • Scattered at 26,000' AGL
Temperature Dewpoint
13°C / 55°F 9°C / 48°F
Humidity Altimeter Pressure
77% 30.27" Hg 1025 hPa